sensor_id;sensor_type;location;lat;lon;timestamp;P1;durP1;ratioP1;P2;durP2;ratioP2
12921;SDS011;6528;48.086;16.282;2023-09-19T00:00:38;1.10;;;0.57;;
12921;SDS011;6528;48.086;16.282;2023-09-19T00:03:08;0.40;;;0.40;;
12921;SDS011;6528;48.086;16.282;2023-09-19T00:05:37;1.60;;;0.50;;
12921;SDS011;6528;48.086;16.282;2023-09-19T00:08:05;0.60;;;0.50;;
12921;SDS011;6528;48.086;16.282;2023-09-19T00:10:33;0.67;;;0.60;;
12921;SDS011;6528;48.086;16.282;2023-09-19T00:13:06;0.90;;;0.40;;
12921;SDS011;6528;48.086;16.282;2023-09-19T00:15:39;0.90;;;0.50;;
12921;SDS011;6528;48.086;16.282;2023-09-19T00:18:08;0.47;;;0.47;;
12921;SDS011;6528;48.086;16.282;2023-09-19T00:20:36;0.63;;;0.60;;
12921;SDS011;6528;48.086;16.282;2023-09-19T00:23:05;1.23;;;0.43;;
12921;SDS011;6528;48.086;16.282;2023-09-19T00:25:35;1.33;;;1.17;;
12921;SDS011;6528;48.086;16.282;2023-09-19T00:28:04;1.17;;;0.50;;
12921;SDS011;6528;48.086;16.282;2023-09-19T00:30:33;0.67;;;0.63;;
12921;SDS011;6528;48.086;16.282;2023-09-19T00:33:01;0.40;;;0.40;;
12921;SDS011;6528;48.086;16.282;2023-09-19T00:35:32;1.13;;;0.53;;
12921;SDS011;6528;48.086;16.282;2023-09-19T00:38:00;1.47;;;0.50;;
12921;SDS011;6528;48.086;16.282;2023-09-19T00:40:28;0.40;;;0.40;;
12921;SDS011;6528;48.086;16.282;2023-09-19T00:42:59;0.37;;;0.37;;
12921;SDS011;6528;48.086;16.282;2023-09-19T00:45:27;0.73;;;0.50;;
12921;SDS011;6528;48.086;16.282;2023-09-19T00:47:55;0.50;;;0.50;;
12921;SDS011;6528;48.086;16.282;2023-09-19T00:50:24;0.93;;;0.50;;
12921;SDS011;6528;48.086;16.282;2023-09-19T00:52:55;0.87;;;0.50;;
12921;SDS011;6528;48.086;16.282;2023-09-19T00:55:24;1.10;;;0.60;;
12921;SDS011;6528;48.086;16.282;2023-09-19T00:57:52;0.47;;;0.33;;
12921;SDS011;6528;48.086;16.282;2023-09-19T01:00:22;0.53;;;0.40;;
12921;SDS011;6528;48.086;16.282;2023-09-19T01:02:50;1.30;;;0.43;;
12921;SDS011;6528;48.086;16.282;2023-09-19T01:05:18;0.90;;;0.60;;
12921;SDS011;6528;48.086;16.282;2023-09-19T01:07:46;0.73;;;0.50;;
12921;SDS011;6528;48.086;16.282;2023-09-19T01:10:16;0.70;;;0.67;;
12921;SDS011;6528;48.086;16.282;2023-09-19T01:18:27;1.13;;;0.70;;
12921;SDS011;6528;48.086;16.282;2023-09-19T01:24:23;0.60;;;0.50;;
12921;SDS011;6528;48.086;16.282;2023-09-19T01:30:09;1.07;;;0.60;;
12921;SDS011;6528;48.086;16.282;2023-09-19T01:32:40;0.70;;;0.70;;
12921;SDS011;6528;48.086;16.282;2023-09-19T01:35:10;2.00;;;0.87;;
12921;SDS011;6528;48.086;16.282;2023-09-19T01:37:39;0.67;;;0.67;;
12921;SDS011;6528;48.086;16.282;2023-09-19T01:40:14;1.10;;;0.70;;
12921;SDS011;6528;48.086;16.282;2023-09-19T01:42:58;1.80;;;1.00;;
12921;SDS011;6528;48.086;16.282;2023-09-19T01:48:41;1.00;;;0.53;;
12921;SDS011;6528;48.086;16.282;2023-09-19T01:51:34;0.80;;;0.70;;
12921;SDS011;6528;48.086;16.282;2023-09-19T01:54:12;1.07;;;0.80;;
12921;SDS011;6528;48.086;16.282;2023-09-19T01:56:55;1.53;;;0.70;;
12921;SDS011;6528;48.086;16.282;2023-09-19T01:59:37;1.33;;;0.80;;
12921;SDS011;6528;48.086;16.282;2023-09-19T02:02:10;0.67;;;0.67;;
12921;SDS011;6528;48.086;16.282;2023-09-19T02:04:38;1.07;;;0.67;;
12921;SDS011;6528;48.086;16.282;2023-09-19T02:07:05;3.07;;;0.70;;
12921;SDS011;6528;48.086;16.282;2023-09-19T02:09:35;1.13;;;0.80;;
12921;SDS011;6528;48.086;16.282;2023-09-19T02:12:04;0.90;;;0.80;;
12921;SDS011;6528;48.086;16.282;2023-09-19T02:14:32;0.90;;;0.77;;
12921;SDS011;6528;48.086;16.282;2023-09-19T02:17:00;1.43;;;1.00;;
12921;SDS011;6528;48.086;16.282;2023-09-19T02:19:36;3.60;;;0.83;;
12921;SDS011;6528;48.086;16.282;2023-09-19T02:22:05;0.77;;;0.77;;
12921;SDS011;6528;48.086;16.282;2023-09-19T02:24:37;0.70;;;0.63;;
12921;SDS011;6528;48.086;16.282;2023-09-19T02:27:05;2.10;;;0.60;;
12921;SDS011;6528;48.086;16.282;2023-09-19T02:29:32;1.40;;;0.80;;
12921;SDS011;6528;48.086;16.282;2023-09-19T02:32:01;1.00;;;0.67;;
12921;SDS011;6528;48.086;16.282;2023-09-19T02:34:30;0.70;;;0.57;;
12921;SDS011;6528;48.086;16.282;2023-09-19T02:36:59;0.70;;;0.67;;
12921;SDS011;6528;48.086;16.282;2023-09-19T02:39:26;0.77;;;0.50;;
12921;SDS011;6528;48.086;16.282;2023-09-19T02:41:54;0.97;;;0.73;;
12921;SDS011;6528;48.086;16.282;2023-09-19T02:44:21;1.20;;;1.10;;
12921;SDS011;6528;48.086;16.282;2023-09-19T02:46:50;1.80;;;0.80;;
12921;SDS011;6528;48.086;16.282;2023-09-19T02:49:18;1.10;;;0.60;;
12921;SDS011;6528;48.086;16.282;2023-09-19T02:51:45;1.17;;;0.70;;
12921;SDS011;6528;48.086;16.282;2023-09-19T02:54:14;0.73;;;0.70;;
12921;SDS011;6528;48.086;16.282;2023-09-19T02:56:42;0.70;;;0.70;;
12921;SDS011;6528;48.086;16.282;2023-09-19T02:59:10;0.60;;;0.60;;
12921;SDS011;6528;48.086;16.282;2023-09-19T03:01:37;0.60;;;0.53;;
12921;SDS011;6528;48.086;16.282;2023-09-19T03:04:05;0.63;;;0.53;;
12921;SDS011;6528;48.086;16.282;2023-09-19T03:06:32;1.70;;;0.40;;
12921;SDS011;6528;48.086;16.282;2023-09-19T03:09:00;0.67;;;0.60;;
12921;SDS011;6528;48.086;16.282;2023-09-19T03:11:29;1.03;;;0.80;;
12921;SDS011;6528;48.086;16.282;2023-09-19T03:13:57;0.60;;;0.60;;
12921;SDS011;6528;48.086;16.282;2023-09-19T03:16:24;1.27;;;0.40;;
12921;SDS011;6528;48.086;16.282;2023-09-19T03:18:52;0.60;;;0.60;;
12921;SDS011;6528;48.086;16.282;2023-09-19T03:21:19;1.00;;;0.87;;
12921;SDS011;6528;48.086;16.282;2023-09-19T03:23:48;0.70;;;0.60;;
12921;SDS011;6528;48.086;16.282;2023-09-19T03:26:15;0.80;;;0.80;;
12921;SDS011;6528;48.086;16.282;2023-09-19T03:28:43;0.70;;;0.70;;
12921;SDS011;6528;48.086;16.282;2023-09-19T03:31:10;0.97;;;0.97;;
12921;SDS011;6528;48.086;16.282;2023-09-19T03:33:38;1.63;;;1.00;;
12921;SDS011;6528;48.086;16.282;2023-09-19T03:36:06;1.07;;;0.70;;
12921;SDS011;6528;48.086;16.282;2023-09-19T03:38:33;0.77;;;0.50;;
12921;SDS011;6528;48.086;16.282;2023-09-19T03:41:02;0.60;;;0.60;;
12921;SDS011;6528;48.086;16.282;2023-09-19T03:43:31;0.60;;;0.60;;
12921;SDS011;6528;48.086;16.282;2023-09-19T03:46:02;0.97;;;0.67;;
12921;SDS011;6528;48.086;16.282;2023-09-19T03:48:31;0.83;;;0.60;;
12921;SDS011;6528;48.086;16.282;2023-09-19T03:50:58;0.70;;;0.70;;
12921;SDS011;6528;48.086;16.282;2023-09-19T03:53:26;0.60;;;0.60;;
12921;SDS011;6528;48.086;16.282;2023-09-19T03:55:53;0.90;;;0.57;;
12921;SDS011;6528;48.086;16.282;2023-09-19T03:58:20;0.70;;;0.70;;
12921;SDS011;6528;48.086;16.282;2023-09-19T04:00:47;0.73;;;0.60;;
12921;SDS011;6528;48.086;16.282;2023-09-19T04:03:16;1.77;;;0.83;;
12921;SDS011;6528;48.086;16.282;2023-09-19T04:05:47;0.77;;;0.70;;
12921;SDS011;6528;48.086;16.282;2023-09-19T04:08:14;0.90;;;0.90;;
12921;SDS011;6528;48.086;16.282;2023-09-19T04:10:42;1.30;;;1.20;;
12921;SDS011;6528;48.086;16.282;2023-09-19T04:13:12;0.90;;;0.90;;
12921;SDS011;6528;48.086;16.282;2023-09-19T04:15:40;0.87;;;0.80;;
12921;SDS011;6528;48.086;16.282;2023-09-19T04:18:08;2.03;;;1.20;;
12921;SDS011;6528;48.086;16.282;2023-09-19T04:20:35;0.90;;;0.90;;
12921;SDS011;6528;48.086;16.282;2023-09-19T04:23:02;0.90;;;0.90;;
12921;SDS011;6528;48.086;16.282;2023-09-19T04:25:32;1.07;;;0.97;;
12921;SDS011;6528;48.086;16.282;2023-09-19T04:27:59;1.30;;;1.20;;
12921;SDS011;6528;48.086;16.282;2023-09-19T04:30:26;0.70;;;0.70;;
12921;SDS011;6528;48.086;16.282;2023-09-19T04:32:54;1.67;;;0.80;;
12921;SDS011;6528;48.086;16.282;2023-09-19T04:35:22;1.70;;;0.90;;
12921;SDS011;6528;48.086;16.282;2023-09-19T04:37:49;1.03;;;1.00;;
12921;SDS011;6528;48.086;16.282;2023-09-19T04:40:17;1.30;;;0.90;;
12921;SDS011;6528;48.086;16.282;2023-09-19T04:42:53;2.47;;;1.23;;
12921;SDS011;6528;48.086;16.282;2023-09-19T04:45:27;1.50;;;1.40;;
12921;SDS011;6528;48.086;16.282;2023-09-19T04:47:55;2.07;;;1.20;;
12921;SDS011;6528;48.086;16.282;2023-09-19T04:50:23;1.10;;;1.00;;
12921;SDS011;6528;48.086;16.282;2023-09-19T04:52:53;1.87;;;1.33;;
12921;SDS011;6528;48.086;16.282;2023-09-19T04:55:21;0.93;;;0.93;;
12921;SDS011;6528;48.086;16.282;2023-09-19T04:57:51;1.30;;;1.20;;
12921;SDS011;6528;48.086;16.282;2023-09-19T05:00:22;2.30;;;1.97;;
12921;SDS011;6528;48.086;16.282;2023-09-19T05:02:51;1.23;;;1.10;;
12921;SDS011;6528;48.086;16.282;2023-09-19T05:05:19;1.40;;;1.30;;
12921;SDS011;6528;48.086;16.282;2023-09-19T05:07:47;1.50;;;1.40;;
12921;SDS011;6528;48.086;16.282;2023-09-19T05:10:15;2.40;;;1.33;;
12921;SDS011;6528;48.086;16.282;2023-09-19T05:12:45;1.37;;;1.20;;
12921;SDS011;6528;48.086;16.282;2023-09-19T05:15:14;1.70;;;1.03;;
12921;SDS011;6528;48.086;16.282;2023-09-19T05:17:50;1.87;;;1.73;;
12921;SDS011;6528;48.086;16.282;2023-09-19T05:20:23;1.40;;;1.20;;
12921;SDS011;6528;48.086;16.282;2023-09-19T05:23:00;1.63;;;1.40;;
12921;SDS011;6528;48.086;16.282;2023-09-19T05:25:29;1.50;;;1.40;;
12921;SDS011;6528;48.086;16.282;2023-09-19T05:27:59;1.73;;;1.20;;
12921;SDS011;6528;48.086;16.282;2023-09-19T05:30:27;4.03;;;1.50;;
12921;SDS011;6528;48.086;16.282;2023-09-19T05:32:55;1.83;;;1.70;;
12921;SDS011;6528;48.086;16.282;2023-09-19T05:35:23;2.33;;;1.27;;
12921;SDS011;6528;48.086;16.282;2023-09-19T05:37:51;2.40;;;1.57;;
12921;SDS011;6528;48.086;16.282;2023-09-19T05:40:19;1.00;;;1.00;;
12921;SDS011;6528;48.086;16.282;2023-09-19T05:42:46;2.93;;;1.87;;
12921;SDS011;6528;48.086;16.282;2023-09-19T05:45:14;1.73;;;1.60;;
12921;SDS011;6528;48.086;16.282;2023-09-19T05:47:45;10.20;;;1.80;;
12921;SDS011;6528;48.086;16.282;2023-09-19T05:50:13;2.17;;;1.97;;
12921;SDS011;6528;48.086;16.282;2023-09-19T05:52:41;2.90;;;1.40;;
12921;SDS011;6528;48.086;16.282;2023-09-19T05:55:09;6.10;;;1.67;;
12921;SDS011;6528;48.086;16.282;2023-09-19T05:57:37;1.73;;;1.63;;
12921;SDS011;6528;48.086;16.282;2023-09-19T06:00:06;2.60;;;1.67;;
12921;SDS011;6528;48.086;16.282;2023-09-19T06:02:37;1.67;;;1.40;;
12921;SDS011;6528;48.086;16.282;2023-09-19T06:05:05;3.33;;;1.77;;
12921;SDS011;6528;48.086;16.282;2023-09-19T06:07:33;2.57;;;1.90;;
12921;SDS011;6528;48.086;16.282;2023-09-19T06:10:03;2.07;;;1.60;;
12921;SDS011;6528;48.086;16.282;2023-09-19T06:12:41;1.50;;;1.40;;
12921;SDS011;6528;48.086;16.282;2023-09-19T06:15:12;1.90;;;1.80;;
12921;SDS011;6528;48.086;16.282;2023-09-19T06:17:49;1.43;;;1.30;;
12921;SDS011;6528;48.086;16.282;2023-09-19T06:20:17;2.27;;;1.70;;
12921;SDS011;6528;48.086;16.282;2023-09-19T06:22:46;2.97;;;2.13;;
12921;SDS011;6528;48.086;16.282;2023-09-19T06:25:14;3.03;;;1.70;;
12921;SDS011;6528;48.086;16.282;2023-09-19T06:27:47;3.23;;;1.70;;
12921;SDS011;6528;48.086;16.282;2023-09-19T06:30:24;1.63;;;1.40;;
12921;SDS011;6528;48.086;16.282;2023-09-19T06:32:56;2.10;;;1.57;;
12921;SDS011;6528;48.086;16.282;2023-09-19T06:35:24;3.10;;;1.93;;
12921;SDS011;6528;48.086;16.282;2023-09-19T06:37:53;2.17;;;2.00;;
12921;SDS011;6528;48.086;16.282;2023-09-19T06:40:20;3.50;;;2.47;;
12921;SDS011;6528;48.086;16.282;2023-09-19T06:42:51;2.40;;;2.13;;
12921;SDS011;6528;48.086;16.282;2023-09-19T06:45:22;2.60;;;1.90;;
12921;SDS011;6528;48.086;16.282;2023-09-19T06:47:53;2.10;;;1.90;;
12921;SDS011;6528;48.086;16.282;2023-09-19T06:50:25;2.20;;;1.87;;
12921;SDS011;6528;48.086;16.282;2023-09-19T06:52:54;2.10;;;1.50;;
12921;SDS011;6528;48.086;16.282;2023-09-19T06:55:24;3.10;;;1.53;;
12921;SDS011;6528;48.086;16.282;2023-09-19T06:57:55;2.10;;;1.90;;
12921;SDS011;6528;48.086;16.282;2023-09-19T07:00:23;4.07;;;2.50;;
12921;SDS011;6528;48.086;16.282;2023-09-19T07:02:57;2.53;;;2.07;;
12921;SDS011;6528;48.086;16.282;2023-09-19T07:05:27;4.33;;;2.60;;
12921;SDS011;6528;48.086;16.282;2023-09-19T07:07:55;2.27;;;2.03;;
12921;SDS011;6528;48.086;16.282;2023-09-19T07:10:27;2.57;;;2.17;;
12921;SDS011;6528;48.086;16.282;2023-09-19T07:13:02;3.23;;;2.57;;
12921;SDS011;6528;48.086;16.282;2023-09-19T07:15:32;2.63;;;2.10;;
12921;SDS011;6528;48.086;16.282;2023-09-19T07:18:06;2.90;;;2.30;;
12921;SDS011;6528;48.086;16.282;2023-09-19T07:20:35;2.90;;;2.30;;
12921;SDS011;6528;48.086;16.282;2023-09-19T07:23:03;2.20;;;1.90;;
12921;SDS011;6528;48.086;16.282;2023-09-19T07:25:31;2.50;;;2.30;;
12921;SDS011;6528;48.086;16.282;2023-09-19T07:27:58;3.20;;;2.57;;
12921;SDS011;6528;48.086;16.282;2023-09-19T07:30:27;2.90;;;2.53;;
12921;SDS011;6528;48.086;16.282;2023-09-19T07:32:56;2.97;;;2.30;;
12921;SDS011;6528;48.086;16.282;2023-09-19T07:35:23;2.60;;;2.20;;
12921;SDS011;6528;48.086;16.282;2023-09-19T07:37:52;2.67;;;2.10;;
12921;SDS011;6528;48.086;16.282;2023-09-19T07:40:19;2.63;;;2.43;;
12921;SDS011;6528;48.086;16.282;2023-09-19T07:42:47;2.73;;;2.53;;
12921;SDS011;6528;48.086;16.282;2023-09-19T07:45:15;2.70;;;2.50;;
12921;SDS011;6528;48.086;16.282;2023-09-19T07:47:46;2.63;;;2.43;;
12921;SDS011;6528;48.086;16.282;2023-09-19T07:50:15;2.57;;;2.20;;
12921;SDS011;6528;48.086;16.282;2023-09-19T07:52:45;2.23;;;2.03;;
12921;SDS011;6528;48.086;16.282;2023-09-19T07:55:14;2.30;;;2.10;;
12921;SDS011;6528;48.086;16.282;2023-09-19T07:57:46;2.90;;;2.23;;
12921;SDS011;6528;48.086;16.282;2023-09-19T08:00:14;2.23;;;2.00;;
12921;SDS011;6528;48.086;16.282;2023-09-19T08:02:41;2.83;;;2.17;;
12921;SDS011;6528;48.086;16.282;2023-09-19T08:05:11;2.60;;;1.80;;
12921;SDS011;6528;48.086;16.282;2023-09-19T08:07:43;1.67;;;1.57;;
12921;SDS011;6528;48.086;16.282;2023-09-19T08:10:15;3.93;;;2.30;;
12921;SDS011;6528;48.086;16.282;2023-09-19T08:12:46;1.77;;;1.50;;
12921;SDS011;6528;48.086;16.282;2023-09-19T08:15:19;1.80;;;1.70;;
12921;SDS011;6528;48.086;16.282;2023-09-19T08:17:47;2.07;;;1.90;;
12921;SDS011;6528;48.086;16.282;2023-09-19T08:20:15;2.20;;;1.90;;
12921;SDS011;6528;48.086;16.282;2023-09-19T08:22:50;2.20;;;2.00;;
12921;SDS011;6528;48.086;16.282;2023-09-19T08:25:21;2.00;;;1.77;;
12921;SDS011;6528;48.086;16.282;2023-09-19T08:27:49;3.80;;;1.70;;
12921;SDS011;6528;48.086;16.282;2023-09-19T08:30:18;2.40;;;1.70;;
12921;SDS011;6528;48.086;16.282;2023-09-19T08:32:51;2.10;;;2.00;;
12921;SDS011;6528;48.086;16.282;2023-09-19T08:35:25;2.53;;;1.47;;
12921;SDS011;6528;48.086;16.282;2023-09-19T08:37:53;2.07;;;1.80;;
12921;SDS011;6528;48.086;16.282;2023-09-19T08:40:22;2.27;;;2.03;;
12921;SDS011;6528;48.086;16.282;2023-09-19T08:42:50;1.97;;;1.53;;
12921;SDS011;6528;48.086;16.282;2023-09-19T08:45:20;2.83;;;2.13;;
12921;SDS011;6528;48.086;16.282;2023-09-19T08:47:56;1.87;;;1.70;;
12921;SDS011;6528;48.086;16.282;2023-09-19T08:50:43;1.60;;;1.50;;
12921;SDS011;6528;48.086;16.282;2023-09-19T08:53:30;1.83;;;1.70;;
12921;SDS011;6528;48.086;16.282;2023-09-19T08:56:01;2.00;;;1.40;;
12921;SDS011;6528;48.086;16.282;2023-09-19T08:58:38;2.43;;;2.10;;
12921;SDS011;6528;48.086;16.282;2023-09-19T09:01:20;2.03;;;1.93;;
12921;SDS011;6528;48.086;16.282;2023-09-19T09:03:55;2.73;;;2.00;;
12921;SDS011;6528;48.086;16.282;2023-09-19T09:06:24;2.10;;;1.13;;
12921;SDS011;6528;48.086;16.282;2023-09-19T09:08:55;2.07;;;1.90;;
12921;SDS011;6528;48.086;16.282;2023-09-19T09:11:23;2.17;;;1.90;;
12921;SDS011;6528;48.086;16.282;2023-09-19T09:13:51;3.93;;;1.37;;
12921;SDS011;6528;48.086;16.282;2023-09-19T09:16:19;1.67;;;1.57;;
12921;SDS011;6528;48.086;16.282;2023-09-19T09:18:46;1.87;;;1.77;;
12921;SDS011;6528;48.086;16.282;2023-09-19T09:21:22;1.80;;;1.70;;
12921;SDS011;6528;48.086;16.282;2023-09-19T09:23:51;2.00;;;1.90;;
12921;SDS011;6528;48.086;16.282;2023-09-19T09:29:05;2.17;;;1.60;;
12921;SDS011;6528;48.086;16.282;2023-09-19T09:31:33;1.53;;;1.43;;
12921;SDS011;6528;48.086;16.282;2023-09-19T09:34:00;1.40;;;1.30;;
12921;SDS011;6528;48.086;16.282;2023-09-19T09:36:34;1.10;;;1.00;;
12921;SDS011;6528;48.086;16.282;2023-09-19T09:39:03;1.50;;;1.40;;
12921;SDS011;6528;48.086;16.282;2023-09-19T09:41:43;1.93;;;1.73;;
12921;SDS011;6528;48.086;16.282;2023-09-19T09:44:14;1.73;;;1.63;;
12921;SDS011;6528;48.086;16.282;2023-09-19T09:46:47;1.60;;;1.50;;
12921;SDS011;6528;48.086;16.282;2023-09-19T09:49:25;2.03;;;1.60;;
12921;SDS011;6528;48.086;16.282;2023-09-19T09:52:04;2.40;;;1.50;;
12921;SDS011;6528;48.086;16.282;2023-09-19T09:54:59;1.67;;;1.30;;
12921;SDS011;6528;48.086;16.282;2023-09-19T09:57:32;1.40;;;1.30;;
12921;SDS011;6528;48.086;16.282;2023-09-19T10:00:00;1.50;;;1.40;;
12921;SDS011;6528;48.086;16.282;2023-09-19T10:02:38;1.63;;;1.53;;
12921;SDS011;6528;48.086;16.282;2023-09-19T10:05:13;1.10;;;1.10;;
12921;SDS011;6528;48.086;16.282;2023-09-19T10:07:55;1.90;;;1.80;;
12921;SDS011;6528;48.086;16.282;2023-09-19T10:10:36;1.50;;;1.40;;
12921;SDS011;6528;48.086;16.282;2023-09-19T10:13:25;1.77;;;1.67;;
12921;SDS011;6528;48.086;16.282;2023-09-19T10:15:55;1.83;;;1.73;;
12921;SDS011;6528;48.086;16.282;2023-09-19T10:18:26;1.90;;;1.80;;
12921;SDS011;6528;48.086;16.282;2023-09-19T10:20:57;1.20;;;1.20;;
12921;SDS011;6528;48.086;16.282;2023-09-19T10:23:26;1.50;;;1.40;;
12921;SDS011;6528;48.086;16.282;2023-09-19T10:25:57;2.83;;;2.00;;
12921;SDS011;6528;48.086;16.282;2023-09-19T10:28:28;2.10;;;1.50;;
12921;SDS011;6528;48.086;16.282;2023-09-19T10:30:58;1.53;;;1.43;;
12921;SDS011;6528;48.086;16.282;2023-09-19T10:33:28;1.77;;;0.93;;
12921;SDS011;6528;48.086;16.282;2023-09-19T10:36:04;1.17;;;1.07;;
12921;SDS011;6528;48.086;16.282;2023-09-19T10:38:32;1.40;;;1.30;;
12921;SDS011;6528;48.086;16.282;2023-09-19T10:41:02;1.80;;;1.70;;
12921;SDS011;6528;48.086;16.282;2023-09-19T10:43:32;2.00;;;1.60;;
12921;SDS011;6528;48.086;16.282;2023-09-19T10:46:03;1.73;;;1.50;;
12921;SDS011;6528;48.086;16.282;2023-09-19T10:48:34;1.57;;;1.47;;
12921;SDS011;6528;48.086;16.282;2023-09-19T10:56:18;1.57;;;1.47;;
12921;SDS011;6528;48.086;16.282;2023-09-19T10:59:11;1.43;;;1.33;;
12921;SDS011;6528;48.086;16.282;2023-09-19T11:01:46;1.00;;;1.00;;
12921;SDS011;6528;48.086;16.282;2023-09-19T11:04:30;1.80;;;1.70;;
12921;SDS011;6528;48.086;16.282;2023-09-19T11:07:06;1.70;;;1.20;;
12921;SDS011;6528;48.086;16.282;2023-09-19T11:09:45;1.43;;;0.90;;
12921;SDS011;6528;48.086;16.282;2023-09-19T11:15:07;1.50;;;1.10;;
12921;SDS011;6528;48.086;16.282;2023-09-19T11:17:40;1.03;;;1.03;;
12921;SDS011;6528;48.086;16.282;2023-09-19T11:30:36;1.40;;;1.30;;
12921;SDS011;6528;48.086;16.282;2023-09-19T11:36:05;1.10;;;1.10;;
12921;SDS011;6528;48.086;16.282;2023-09-19T11:43:49;0.83;;;0.83;;
12921;SDS011;6528;48.086;16.282;2023-09-19T11:46:26;1.07;;;1.07;;
12921;SDS011;6528;48.086;16.282;2023-09-19T11:48:55;1.00;;;1.00;;
12921;SDS011;6528;48.086;16.282;2023-09-19T11:51:55;1.43;;;0.97;;
12921;SDS011;6528;48.086;16.282;2023-09-19T11:54:24;1.33;;;1.20;;
12921;SDS011;6528;48.086;16.282;2023-09-19T11:56:54;1.17;;;1.07;;
12921;SDS011;6528;48.086;16.282;2023-09-19T11:59:29;1.20;;;1.00;;
12921;SDS011;6528;48.086;16.282;2023-09-19T12:01:57;1.10;;;1.10;;
12921;SDS011;6528;48.086;16.282;2023-09-19T12:04:35;1.40;;;1.10;;
12921;SDS011;6528;48.086;16.282;2023-09-19T12:07:05;1.10;;;1.03;;
12921;SDS011;6528;48.086;16.282;2023-09-19T12:09:41;0.70;;;0.70;;
12921;SDS011;6528;48.086;16.282;2023-09-19T12:12:11;1.13;;;0.80;;
12921;SDS011;6528;48.086;16.282;2023-09-19T12:14:48;1.13;;;1.00;;
12921;SDS011;6528;48.086;16.282;2023-09-19T12:17:19;0.87;;;0.87;;
12921;SDS011;6528;48.086;16.282;2023-09-19T12:19:51;1.20;;;1.10;;
12921;SDS011;6528;48.086;16.282;2023-09-19T12:22:19;0.80;;;0.80;;
12921;SDS011;6528;48.086;16.282;2023-09-19T12:24:47;0.93;;;0.93;;
12921;SDS011;6528;48.086;16.282;2023-09-19T12:27:17;2.10;;;1.10;;
12921;SDS011;6528;48.086;16.282;2023-09-19T12:29:45;1.27;;;1.20;;
12921;SDS011;6528;48.086;16.282;2023-09-19T12:32:17;1.20;;;1.10;;
12921;SDS011;6528;48.086;16.282;2023-09-19T12:34:51;1.00;;;1.00;;
12921;SDS011;6528;48.086;16.282;2023-09-19T12:37:22;1.30;;;1.20;;
12921;SDS011;6528;48.086;16.282;2023-09-19T12:39:50;2.00;;;1.30;;
12921;SDS011;6528;48.086;16.282;2023-09-19T12:42:25;1.30;;;1.20;;
12921;SDS011;6528;48.086;16.282;2023-09-19T12:45:02;1.63;;;1.00;;
12921;SDS011;6528;48.086;16.282;2023-09-19T12:47:36;1.27;;;1.17;;
12921;SDS011;6528;48.086;16.282;2023-09-19T12:50:07;1.20;;;1.10;;
12921;SDS011;6528;48.086;16.282;2023-09-19T12:52:48;1.50;;;1.40;;
12921;SDS011;6528;48.086;16.282;2023-09-19T12:57:56;1.30;;;1.20;;
12921;SDS011;6528;48.086;16.282;2023-09-19T13:00:43;1.50;;;1.20;;
12921;SDS011;6528;48.086;16.282;2023-09-19T13:03:12;1.10;;;1.10;;
12921;SDS011;6528;48.086;16.282;2023-09-19T13:06:03;1.43;;;1.33;;
12921;SDS011;6528;48.086;16.282;2023-09-19T13:08:31;1.57;;;1.10;;
12921;SDS011;6528;48.086;16.282;2023-09-19T13:11:06;2.37;;;1.00;;
12921;SDS011;6528;48.086;16.282;2023-09-19T13:13:37;1.50;;;1.40;;
12921;SDS011;6528;48.086;16.282;2023-09-19T13:16:16;1.50;;;1.30;;
12921;SDS011;6528;48.086;16.282;2023-09-19T13:18:52;1.63;;;1.40;;
12921;SDS011;6528;48.086;16.282;2023-09-19T13:21:32;1.50;;;1.40;;
12921;SDS011;6528;48.086;16.282;2023-09-19T13:24:23;1.43;;;1.20;;
12921;SDS011;6528;48.086;16.282;2023-09-19T13:26:54;1.30;;;1.20;;
12921;SDS011;6528;48.086;16.282;2023-09-19T13:29:22;1.30;;;1.20;;
12921;SDS011;6528;48.086;16.282;2023-09-19T13:31:50;1.50;;;1.40;;
12921;SDS011;6528;48.086;16.282;2023-09-19T13:34:21;1.23;;;1.13;;
12921;SDS011;6528;48.086;16.282;2023-09-19T13:36:49;1.43;;;1.10;;
12921;SDS011;6528;48.086;16.282;2023-09-19T13:39:16;1.17;;;1.07;;
12921;SDS011;6528;48.086;16.282;2023-09-19T13:41:44;1.30;;;1.20;;
12921;SDS011;6528;48.086;16.282;2023-09-19T13:44:13;1.70;;;1.17;;
12921;SDS011;6528;48.086;16.282;2023-09-19T13:46:41;1.50;;;1.30;;
12921;SDS011;6528;48.086;16.282;2023-09-19T13:49:13;2.00;;;1.00;;
12921;SDS011;6528;48.086;16.282;2023-09-19T13:51:40;1.40;;;1.07;;
12921;SDS011;6528;48.086;16.282;2023-09-19T13:54:11;1.40;;;1.30;;
12921;SDS011;6528;48.086;16.282;2023-09-19T13:56:39;1.33;;;1.17;;
12921;SDS011;6528;48.086;16.282;2023-09-19T13:59:06;1.10;;;1.00;;
12921;SDS011;6528;48.086;16.282;2023-09-19T14:01:34;1.40;;;1.27;;
12921;SDS011;6528;48.086;16.282;2023-09-19T14:04:02;2.10;;;1.17;;
12921;SDS011;6528;48.086;16.282;2023-09-19T14:06:29;4.13;;;1.30;;
12921;SDS011;6528;48.086;16.282;2023-09-19T14:08:56;2.27;;;1.10;;
12921;SDS011;6528;48.086;16.282;2023-09-19T14:11:24;1.20;;;1.20;;
12921;SDS011;6528;48.086;16.282;2023-09-19T14:13:53;1.87;;;1.17;;
12921;SDS011;6528;48.086;16.282;2023-09-19T14:16:23;1.40;;;1.23;;
12921;SDS011;6528;48.086;16.282;2023-09-19T14:18:51;1.77;;;1.40;;
12921;SDS011;6528;48.086;16.282;2023-09-19T14:21:18;1.20;;;1.10;;
12921;SDS011;6528;48.086;16.282;2023-09-19T14:23:46;1.33;;;1.23;;
12921;SDS011;6528;48.086;16.282;2023-09-19T14:26:15;1.20;;;1.10;;
12921;SDS011;6528;48.086;16.282;2023-09-19T14:28:43;2.33;;;0.90;;
12921;SDS011;6528;48.086;16.282;2023-09-19T14:31:11;1.10;;;1.00;;
12921;SDS011;6528;48.086;16.282;2023-09-19T14:33:39;1.27;;;1.17;;
12921;SDS011;6528;48.086;16.282;2023-09-19T14:36:07;1.33;;;1.00;;
12921;SDS011;6528;48.086;16.282;2023-09-19T14:38:37;2.27;;;1.10;;
12921;SDS011;6528;48.086;16.282;2023-09-19T14:41:06;1.07;;;1.00;;
12921;SDS011;6528;48.086;16.282;2023-09-19T14:43:33;1.10;;;1.00;;
12921;SDS011;6528;48.086;16.282;2023-09-19T14:46:04;1.57;;;1.20;;
12921;SDS011;6528;48.086;16.282;2023-09-19T14:48:36;1.53;;;1.10;;
12921;SDS011;6528;48.086;16.282;2023-09-19T14:51:05;1.07;;;1.00;;
12921;SDS011;6528;48.086;16.282;2023-09-19T14:53:35;1.67;;;1.50;;
12921;SDS011;6528;48.086;16.282;2023-09-19T14:56:07;0.80;;;0.80;;
12921;SDS011;6528;48.086;16.282;2023-09-19T14:58:35;1.03;;;0.93;;
12921;SDS011;6528;48.086;16.282;2023-09-19T15:01:06;1.93;;;1.00;;
12921;SDS011;6528;48.086;16.282;2023-09-19T15:03:34;0.80;;;0.80;;
12921;SDS011;6528;48.086;16.282;2023-09-19T15:06:03;1.30;;;1.20;;
12921;SDS011;6528;48.086;16.282;2023-09-19T15:08:32;1.13;;;1.03;;
12921;SDS011;6528;48.086;16.282;2023-09-19T15:11:07;1.07;;;0.80;;
12921;SDS011;6528;48.086;16.282;2023-09-19T15:13:35;1.00;;;1.00;;
12921;SDS011;6528;48.086;16.282;2023-09-19T15:16:04;0.77;;;0.77;;
12921;SDS011;6528;48.086;16.282;2023-09-19T15:18:36;1.00;;;0.90;;
12921;SDS011;6528;48.086;16.282;2023-09-19T15:21:06;1.10;;;1.10;;
12921;SDS011;6528;48.086;16.282;2023-09-19T15:23:38;3.90;;;1.23;;
12921;SDS011;6528;48.086;16.282;2023-09-19T15:26:06;1.40;;;1.10;;
12921;SDS011;6528;48.086;16.282;2023-09-19T15:28:44;1.30;;;1.20;;
12921;SDS011;6528;48.086;16.282;2023-09-19T15:31:12;2.80;;;1.73;;
12921;SDS011;6528;48.086;16.282;2023-09-19T15:33:40;0.97;;;0.93;;
12921;SDS011;6528;48.086;16.282;2023-09-19T15:36:08;1.20;;;1.13;;
12921;SDS011;6528;48.086;16.282;2023-09-19T15:41:31;1.57;;;0.90;;
12921;SDS011;6528;48.086;16.282;2023-09-19T15:43:59;0.70;;;0.70;;
12921;SDS011;6528;48.086;16.282;2023-09-19T15:46:29;0.90;;;0.90;;
12921;SDS011;6528;48.086;16.282;2023-09-19T15:48:57;0.70;;;0.70;;
12921;SDS011;6528;48.086;16.282;2023-09-19T15:51:25;1.17;;;1.07;;
12921;SDS011;6528;48.086;16.282;2023-09-19T15:53:53;1.93;;;1.07;;
12921;SDS011;6528;48.086;16.282;2023-09-19T15:56:23;1.10;;;1.10;;
12921;SDS011;6528;48.086;16.282;2023-09-19T15:58:51;1.13;;;1.03;;